sensor_id;sensor_type;location;lat;lon;timestamp;pressure;altitude;pressure_sealevel;temperature;humidity
41515;BME280;27247;48.020;16.720;2022-12-18T00:01:58;101456.75;;;-2.01;91.14
41515;BME280;27247;48.020;16.720;2022-12-18T00:06:11;101464.00;;;-2.09;91.42
41515;BME280;27247;48.020;16.720;2022-12-18T00:10:23;101464.19;;;-2.14;91.58
41515;BME280;27247;48.020;16.720;2022-12-18T00:14:34;101460.88;;;-2.19;91.78
41515;BME280;27247;48.020;16.720;2022-12-18T00:18:44;101452.38;;;-2.26;91.82
41515;BME280;27247;48.020;16.720;2022-12-18T00:22:54;101460.59;;;-2.36;92.00
41515;BME280;27247;48.020;16.720;2022-12-18T00:27:05;101470.38;;;-2.41;91.98
41515;BME280;27247;48.020;16.720;2022-12-18T00:31:18;101478.34;;;-2.44;92.01
41515;BME280;27247;48.020;16.720;2022-12-18T00:35:28;101483.09;;;-2.55;91.56
41515;BME280;27247;48.020;16.720;2022-12-18T00:39:38;101485.22;;;-2.67;92.38
41515;BME280;27247;48.020;16.720;2022-12-18T00:43:49;101481.94;;;-2.73;92.63
41515;BME280;27247;48.020;16.720;2022-12-18T00:47:59;101482.03;;;-2.76;93.32
41515;BME280;27247;48.020;16.720;2022-12-18T00:52:09;101483.06;;;-2.80;93.91
41515;BME280;27247;48.020;16.720;2022-12-18T00:56:20;101481.38;;;-2.83;93.90
41515;BME280;27247;48.020;16.720;2022-12-18T01:00:30;101474.34;;;-2.81;93.80
41515;BME280;27247;48.020;16.720;2022-12-18T01:04:40;101472.63;;;-2.82;93.98
41515;BME280;27247;48.020;16.720;2022-12-18T01:08:51;101490.94;;;-2.82;93.74
41515;BME280;27247;48.020;16.720;2022-12-18T01:13:01;101497.09;;;-2.83;93.02
41515;BME280;27247;48.020;16.720;2022-12-18T01:17:12;101501.41;;;-2.82;93.60
41515;BME280;27247;48.020;16.720;2022-12-18T01:21:23;101501.59;;;-2.88;93.04
41515;BME280;27247;48.020;16.720;2022-12-18T01:25:36;101505.22;;;-2.92;93.38
41515;BME280;27247;48.020;16.720;2022-12-18T01:29:46;101493.91;;;-2.93;93.03
41515;BME280;27247;48.020;16.720;2022-12-18T01:33:57;101487.97;;;-2.98;92.84
41515;BME280;27247;48.020;16.720;2022-12-18T01:38:10;101492.44;;;-3.01;92.76
41515;BME280;27247;48.020;16.720;2022-12-18T01:42:21;101503.91;;;-3.05;92.73
41515;BME280;27247;48.020;16.720;2022-12-18T01:46:31;101516.31;;;-3.13;92.57
41515;BME280;27247;48.020;16.720;2022-12-18T01:50:42;101520.84;;;-3.18;92.93
41515;BME280;27247;48.020;16.720;2022-12-18T01:54:54;101522.41;;;-3.11;93.11
41515;BME280;27247;48.020;16.720;2022-12-18T01:59:07;101516.38;;;-3.15;93.58
41515;BME280;27247;48.020;16.720;2022-12-18T02:03:20;101536.28;;;-3.09;93.18
41515;BME280;27247;48.020;16.720;2022-12-18T02:12:34;101545.84;;;-3.08;92.54
41515;BME280;27247;48.020;16.720;2022-12-18T02:17:10;101544.75;;;-3.01;91.97
41515;BME280;27247;48.020;16.720;2022-12-18T02:26:49;101556.81;;;-2.97;91.58
41515;BME280;27247;48.020;16.720;2022-12-18T02:31:02;101553.44;;;-3.01;90.83
41515;BME280;27247;48.020;16.720;2022-12-18T02:35:26;101552.03;;;-3.12;91.06
41515;BME280;27247;48.020;16.720;2022-12-18T02:39:40;101548.78;;;-3.21;91.10
41515;BME280;27247;48.020;16.720;2022-12-18T02:43:57;101557.44;;;-3.18;91.81
41515;BME280;27247;48.020;16.720;2022-12-18T02:48:07;101553.97;;;-3.19;91.96
41515;BME280;27247;48.020;16.720;2022-12-18T02:56:51;101579.44;;;-3.26;91.08
41515;BME280;27247;48.020;16.720;2022-12-18T03:01:11;101582.00;;;-3.24;91.63
41515;BME280;27247;48.020;16.720;2022-12-18T03:05:31;101585.16;;;-3.42;91.47
41515;BME280;27247;48.020;16.720;2022-12-18T03:09:43;101596.72;;;-3.51;91.09
41515;BME280;27247;48.020;16.720;2022-12-18T03:13:57;101588.44;;;-3.67;90.99
41515;BME280;27247;48.020;16.720;2022-12-18T03:18:15;101593.72;;;-3.68;91.23
41515;BME280;27247;48.020;16.720;2022-12-18T03:22:29;101602.00;;;-3.85;91.57
41515;BME280;27247;48.020;16.720;2022-12-18T03:26:45;101587.38;;;-3.91;91.65
41515;BME280;27247;48.020;16.720;2022-12-18T03:30:58;101593.56;;;-3.95;91.71
41515;BME280;27247;48.020;16.720;2022-12-18T03:35:13;101600.25;;;-3.84;91.68
41515;BME280;27247;48.020;16.720;2022-12-18T03:39:27;101602.38;;;-3.99;92.16
41515;BME280;27247;48.020;16.720;2022-12-18T03:52:20;101603.75;;;-4.20;91.05
41515;BME280;27247;48.020;16.720;2022-12-18T03:56:38;101617.00;;;-4.27;91.52
41515;BME280;27247;48.020;16.720;2022-12-18T04:00:52;101617.31;;;-4.41;92.99
41515;BME280;27247;48.020;16.720;2022-12-18T04:05:05;101632.97;;;-4.41;92.97
41515;BME280;27247;48.020;16.720;2022-12-18T04:09:18;101634.81;;;-4.44;94.43
41515;BME280;27247;48.020;16.720;2022-12-18T04:13:32;101624.28;;;-4.41;94.10
41515;BME280;27247;48.020;16.720;2022-12-18T04:17:48;101639.81;;;-4.35;93.88
41515;BME280;27247;48.020;16.720;2022-12-18T04:21:58;101637.00;;;-4.28;93.50
41515;BME280;27247;48.020;16.720;2022-12-18T04:26:09;101640.47;;;-4.27;93.40
41515;BME280;27247;48.020;16.720;2022-12-18T04:30:19;101651.19;;;-4.39;92.89
41515;BME280;27247;48.020;16.720;2022-12-18T04:34:29;101658.03;;;-4.34;92.41
41515;BME280;27247;48.020;16.720;2022-12-18T04:38:40;101653.88;;;-4.42;92.30
41515;BME280;27247;48.020;16.720;2022-12-18T04:42:50;101670.31;;;-4.39;92.55
41515;BME280;27247;48.020;16.720;2022-12-18T04:47:01;101671.91;;;-4.32;92.54
41515;BME280;27247;48.020;16.720;2022-12-18T04:51:11;101671.94;;;-4.33;92.10
41515;BME280;27247;48.020;16.720;2022-12-18T04:55:22;101669.47;;;-4.39;91.71
41515;BME280;27247;48.020;16.720;2022-12-18T04:59:32;101672.06;;;-4.39;92.90
41515;BME280;27247;48.020;16.720;2022-12-18T05:03:43;101681.69;;;-4.41;93.84
41515;BME280;27247;48.020;16.720;2022-12-18T05:07:53;101691.09;;;-4.34;94.34
41515;BME280;27247;48.020;16.720;2022-12-18T05:12:03;101690.25;;;-4.36;94.60
41515;BME280;27247;48.020;16.720;2022-12-18T05:16:14;101695.41;;;-4.33;94.13
41515;BME280;27247;48.020;16.720;2022-12-18T05:20:25;101705.03;;;-4.35;93.45
41515;BME280;27247;48.020;16.720;2022-12-18T05:24:35;101708.78;;;-4.47;93.62
41515;BME280;27247;48.020;16.720;2022-12-18T05:28:46;101714.84;;;-4.46;93.97
41515;BME280;27247;48.020;16.720;2022-12-18T05:32:56;101724.66;;;-4.58;94.47
41515;BME280;27247;48.020;16.720;2022-12-18T05:37:07;101721.16;;;-4.57;93.92
41515;BME280;27247;48.020;16.720;2022-12-18T05:41:17;101724.78;;;-4.64;93.86
41515;BME280;27247;48.020;16.720;2022-12-18T05:45:27;101730.22;;;-4.73;94.33
41515;BME280;27247;48.020;16.720;2022-12-18T05:49:38;101729.06;;;-4.60;94.71
41515;BME280;27247;48.020;16.720;2022-12-18T05:53:48;101730.66;;;-4.54;95.28
41515;BME280;27247;48.020;16.720;2022-12-18T05:57:58;101735.59;;;-4.82;94.04
41515;BME280;27247;48.020;16.720;2022-12-18T06:02:09;101728.41;;;-4.71;94.15
41515;BME280;27247;48.020;16.720;2022-12-18T06:06:24;101740.59;;;-4.71;93.51
41515;BME280;27247;48.020;16.720;2022-12-18T06:10:35;101731.88;;;-4.70;93.48
41515;BME280;27247;48.020;16.720;2022-12-18T06:14:45;101736.38;;;-4.77;93.92
41515;BME280;27247;48.020;16.720;2022-12-18T06:18:59;101728.81;;;-4.89;94.35
41515;BME280;27247;48.020;16.720;2022-12-18T06:23:10;101726.06;;;-4.83;94.53
41515;BME280;27247;48.020;16.720;2022-12-18T06:27:20;101743.63;;;-4.91;94.63
41515;BME280;27247;48.020;16.720;2022-12-18T06:31:30;101750.50;;;-4.87;95.20
41515;BME280;27247;48.020;16.720;2022-12-18T06:35:41;101749.97;;;-5.04;95.40
41515;BME280;27247;48.020;16.720;2022-12-18T06:39:52;101776.59;;;-5.38;93.21
41515;BME280;27247;48.020;16.720;2022-12-18T06:44:03;101775.81;;;-5.41;92.14
41515;BME280;27247;48.020;16.720;2022-12-18T06:48:13;101770.84;;;-5.57;92.42
41515;BME280;27247;48.020;16.720;2022-12-18T06:52:24;101770.53;;;-5.38;92.00
41515;BME280;27247;48.020;16.720;2022-12-18T06:56:34;101781.66;;;-5.29;92.49
41515;BME280;27247;48.020;16.720;2022-12-18T07:00:45;101787.63;;;-5.24;93.62
41515;BME280;27247;48.020;16.720;2022-12-18T07:04:55;101799.38;;;-5.49;93.45
41515;BME280;27247;48.020;16.720;2022-12-18T07:09:05;101809.28;;;-5.71;94.30
41515;BME280;27247;48.020;16.720;2022-12-18T07:13:16;101822.22;;;-5.66;95.55
41515;BME280;27247;48.020;16.720;2022-12-18T07:17:27;101823.53;;;-5.39;95.78
41515;BME280;27247;48.020;16.720;2022-12-18T07:21:37;101836.09;;;-5.64;95.79
41515;BME280;27247;48.020;16.720;2022-12-18T07:25:47;101831.53;;;-5.52;97.00
41515;BME280;27247;48.020;16.720;2022-12-18T07:29:58;101841.75;;;-5.39;97.45
41515;BME280;27247;48.020;16.720;2022-12-18T07:34:12;101841.47;;;-5.23;97.82
41515;BME280;27247;48.020;16.720;2022-12-18T07:38:23;101856.00;;;-5.08;97.50
41515;BME280;27247;48.020;16.720;2022-12-18T07:42:33;101874.25;;;-5.08;97.12
41515;BME280;27247;48.020;16.720;2022-12-18T07:46:44;101860.97;;;-4.94;97.04
41515;BME280;27247;48.020;16.720;2022-12-18T07:51:02;101866.09;;;-4.90;96.88
41515;BME280;27247;48.020;16.720;2022-12-18T07:55:14;101871.69;;;-4.63;96.48
41515;BME280;27247;48.020;16.720;2022-12-18T07:59:24;101880.16;;;-4.51;95.65
41515;BME280;27247;48.020;16.720;2022-12-18T08:03:35;101877.97;;;-4.29;96.01
41515;BME280;27247;48.020;16.720;2022-12-18T08:07:45;101884.66;;;-4.14;94.60
41515;BME280;27247;48.020;16.720;2022-12-18T08:11:56;101901.00;;;-4.06;95.30
41515;BME280;27247;48.020;16.720;2022-12-18T08:16:07;101897.94;;;-3.84;95.78
41515;BME280;27247;48.020;16.720;2022-12-18T08:20:17;101890.69;;;-3.72;95.53
41515;BME280;27247;48.020;16.720;2022-12-18T08:24:28;101904.09;;;-3.48;96.28
41515;BME280;27247;48.020;16.720;2022-12-18T08:28:39;101890.66;;;-3.33;96.29
41515;BME280;27247;48.020;16.720;2022-12-18T08:32:51;101900.63;;;-3.12;96.29
41515;BME280;27247;48.020;16.720;2022-12-18T08:37:03;101903.56;;;-2.90;95.02
41515;BME280;27247;48.020;16.720;2022-12-18T08:41:15;101892.69;;;-2.75;93.80
41515;BME280;27247;48.020;16.720;2022-12-18T08:45:26;101904.47;;;-2.59;92.91
41515;BME280;27247;48.020;16.720;2022-12-18T08:49:36;101895.25;;;-2.41;92.25
41515;BME280;27247;48.020;16.720;2022-12-18T08:53:47;101897.72;;;-2.35;91.63
41515;BME280;27247;48.020;16.720;2022-12-18T08:57:57;101898.78;;;-2.11;90.86
41515;BME280;27247;48.020;16.720;2022-12-18T09:02:10;101909.34;;;-2.14;88.87
41515;BME280;27247;48.020;16.720;2022-12-18T09:06:22;101922.25;;;-2.06;89.76
41515;BME280;27247;48.020;16.720;2022-12-18T09:10:33;101907.22;;;-2.00;88.67
41515;BME280;27247;48.020;16.720;2022-12-18T09:14:43;101911.81;;;-2.08;88.28
41515;BME280;27247;48.020;16.720;2022-12-18T09:18:55;101921.41;;;-2.08;88.53
41515;BME280;27247;48.020;16.720;2022-12-18T09:23:10;101916.00;;;-2.02;88.68
41515;BME280;27247;48.020;16.720;2022-12-18T09:27:20;101915.34;;;-1.79;88.20
41515;BME280;27247;48.020;16.720;2022-12-18T09:31:30;101929.69;;;-1.63;88.17
41515;BME280;27247;48.020;16.720;2022-12-18T09:35:43;101931.41;;;-1.62;86.08
41515;BME280;27247;48.020;16.720;2022-12-18T09:39:53;101917.59;;;-1.39;86.89
41515;BME280;27247;48.020;16.720;2022-12-18T09:44:29;101914.56;;;-1.27;84.43
41515;BME280;27247;48.020;16.720;2022-12-18T09:48:42;101915.38;;;-1.25;85.55
41515;BME280;27247;48.020;16.720;2022-12-18T09:52:56;101905.59;;;-1.20;85.39
41515;BME280;27247;48.020;16.720;2022-12-18T09:57:18;101898.03;;;-1.29;84.32
41515;BME280;27247;48.020;16.720;2022-12-18T10:01:32;101907.41;;;-1.48;85.57
41515;BME280;27247;48.020;16.720;2022-12-18T10:14:45;101907.88;;;-1.93;87.20
41515;BME280;27247;48.020;16.720;2022-12-18T10:28:12;101890.78;;;-2.05;87.89
41515;BME280;27247;48.020;16.720;2022-12-18T10:32:25;101890.44;;;-1.94;88.28
41515;BME280;27247;48.020;16.720;2022-12-18T10:36:37;101899.72;;;-1.82;88.72
41515;BME280;27247;48.020;16.720;2022-12-18T10:41:06;101875.31;;;-1.56;87.80
41515;BME280;27247;48.020;16.720;2022-12-18T10:45:24;101875.38;;;-1.58;87.34
41515;BME280;27247;48.020;16.720;2022-12-18T10:49:35;101893.28;;;-1.44;86.84
41515;BME280;27247;48.020;16.720;2022-12-18T10:53:52;101879.03;;;-1.36;85.55
41515;BME280;27247;48.020;16.720;2022-12-18T10:58:20;101883.66;;;-1.17;85.38
41515;BME280;27247;48.020;16.720;2022-12-18T11:02:37;101879.50;;;-0.97;84.06
41515;BME280;27247;48.020;16.720;2022-12-18T11:11:20;101871.84;;;-0.78;82.64
41515;BME280;27247;48.020;16.720;2022-12-18T11:15:32;101858.63;;;-0.75;82.72
41515;BME280;27247;48.020;16.720;2022-12-18T11:19:43;101868.63;;;-0.86;82.42
41515;BME280;27247;48.020;16.720;2022-12-18T11:23:53;101854.59;;;-1.11;82.74
41515;BME280;27247;48.020;16.720;2022-12-18T11:28:05;101856.13;;;-1.31;83.76
41515;BME280;27247;48.020;16.720;2022-12-18T11:32:38;101855.56;;;-1.40;85.18
41515;BME280;27247;48.020;16.720;2022-12-18T11:36:50;101864.25;;;-1.38;85.60
41515;BME280;27247;48.020;16.720;2022-12-18T11:41:13;101856.63;;;-1.46;85.13
41515;BME280;27247;48.020;16.720;2022-12-18T11:45:41;101859.03;;;-1.66;85.97
41515;BME280;27247;48.020;16.720;2022-12-18T11:50:00;101856.97;;;-1.84;87.01
41515;BME280;27247;48.020;16.720;2022-12-18T11:54:15;101864.66;;;-2.08;88.80
41515;BME280;27247;48.020;16.720;2022-12-18T11:58:47;101852.72;;;-2.18;89.88
41515;BME280;27247;48.020;16.720;2022-12-18T12:03:20;101860.44;;;-2.13;90.36
41515;BME280;27247;48.020;16.720;2022-12-18T12:07:43;101852.44;;;-2.07;89.80
41515;BME280;27247;48.020;16.720;2022-12-18T12:16:41;101837.53;;;-2.36;92.18
41515;BME280;27247;48.020;16.720;2022-12-18T12:21:09;101834.72;;;-2.60;93.00
41515;BME280;27247;48.020;16.720;2022-12-18T12:25:37;101843.38;;;-2.58;93.73
41515;BME280;27247;48.020;16.720;2022-12-18T12:30:00;101825.53;;;-2.43;94.39
41515;BME280;27247;48.020;16.720;2022-12-18T12:34:46;101849.94;;;-2.43;94.20
41515;BME280;27247;48.020;16.720;2022-12-18T12:39:05;101837.91;;;-2.48;93.99
41515;BME280;27247;48.020;16.720;2022-12-18T12:43:37;101836.09;;;-2.46;93.82
41515;BME280;27247;48.020;16.720;2022-12-18T12:47:50;101836.09;;;-2.46;94.18
41515;BME280;27247;48.020;16.720;2022-12-18T12:52:12;101831.53;;;-2.40;95.20
41515;BME280;27247;48.020;16.720;2022-12-18T12:56:25;101832.03;;;-2.57;94.47
41515;BME280;27247;48.020;16.720;2022-12-18T13:00:44;101833.25;;;-2.70;95.02
41515;BME280;27247;48.020;16.720;2022-12-18T13:05:14;101829.81;;;-2.72;95.55
41515;BME280;27247;48.020;16.720;2022-12-18T13:09:34;101838.53;;;-2.71;96.66
41515;BME280;27247;48.020;16.720;2022-12-18T13:13:53;101841.16;;;-2.71;97.14
41515;BME280;27247;48.020;16.720;2022-12-18T13:18:10;101843.69;;;-2.68;97.13
41515;BME280;27247;48.020;16.720;2022-12-18T13:22:23;101849.03;;;-2.73;96.51
41515;BME280;27247;48.020;16.720;2022-12-18T13:26:34;101854.03;;;-2.64;98.22
41515;BME280;27247;48.020;16.720;2022-12-18T13:30:54;101864.50;;;-2.64;97.60
41515;BME280;27247;48.020;16.720;2022-12-18T13:39:33;101862.16;;;-2.74;97.50
41515;BME280;27247;48.020;16.720;2022-12-18T13:43:48;101861.38;;;-2.78;97.61
41515;BME280;27247;48.020;16.720;2022-12-18T13:47:59;101869.31;;;-2.81;97.57
41515;BME280;27247;48.020;16.720;2022-12-18T13:52:28;101871.66;;;-2.70;98.81
41515;BME280;27247;48.020;16.720;2022-12-18T13:56:44;101867.22;;;-2.68;98.21
41515;BME280;27247;48.020;16.720;2022-12-18T14:00:55;101871.53;;;-2.66;97.78
41515;BME280;27247;48.020;16.720;2022-12-18T14:05:22;101881.22;;;-2.69;97.68
41515;BME280;27247;48.020;16.720;2022-12-18T14:09:37;101873.25;;;-2.65;98.38
41515;BME280;27247;48.020;16.720;2022-12-18T14:13:49;101873.06;;;-2.59;98.56
41515;BME280;27247;48.020;16.720;2022-12-18T14:18:09;101880.06;;;-2.59;98.55
41515;BME280;27247;48.020;16.720;2022-12-18T14:22:26;101881.50;;;-2.47;99.12
41515;BME280;27247;48.020;16.720;2022-12-18T14:26:39;101890.84;;;-2.39;98.40
41515;BME280;27247;48.020;16.720;2022-12-18T14:30:50;101897.09;;;-2.44;97.91
41515;BME280;27247;48.020;16.720;2022-12-18T14:35:12;101902.28;;;-2.43;97.09
41515;BME280;27247;48.020;16.720;2022-12-18T14:39:23;101910.16;;;-2.43;97.98
41515;BME280;27247;48.020;16.720;2022-12-18T14:43:37;101904.09;;;-2.45;98.24
41515;BME280;27247;48.020;16.720;2022-12-18T14:47:48;101901.41;;;-2.42;98.67
41515;BME280;27247;48.020;16.720;2022-12-18T14:52:00;101912.59;;;-2.37;98.44
41515;BME280;27247;48.020;16.720;2022-12-18T14:56:26;101906.50;;;-2.37;98.65
41515;BME280;27247;48.020;16.720;2022-12-18T15:00:41;101903.03;;;-2.38;98.45
41515;BME280;27247;48.020;16.720;2022-12-18T15:05:16;101900.47;;;-2.39;98.13
41515;BME280;27247;48.020;16.720;2022-12-18T15:09:28;101903.81;;;-2.34;98.46
41515;BME280;27247;48.020;16.720;2022-12-18T15:13:39;101901.00;;;-2.28;98.69
41515;BME280;27247;48.020;16.720;2022-12-18T15:17:57;101913.97;;;-2.23;99.11
41515;BME280;27247;48.020;16.720;2022-12-18T15:22:21;101919.00;;;-2.16;99.27
41515;BME280;27247;48.020;16.720;2022-12-18T15:26:36;101912.84;;;-2.15;99.15
41515;BME280;27247;48.020;16.720;2022-12-18T15:35:24;101914.22;;;-2.00;99.00
41515;BME280;27247;48.020;16.720;2022-12-18T15:39:35;101922.66;;;-1.90;100.00
41515;BME280;27247;48.020;16.720;2022-12-18T15:43:48;101916.75;;;-1.97;100.00
41515;BME280;27247;48.020;16.720;2022-12-18T15:48:04;101913.00;;;-1.88;100.00
41515;BME280;27247;48.020;16.720;2022-12-18T15:52:15;101911.81;;;-1.78;99.33
41515;BME280;27247;48.020;16.720;2022-12-18T15:56:36;101915.06;;;-1.70;98.25
41515;BME280;27247;48.020;16.720;2022-12-18T16:01:05;101915.72;;;-1.64;97.06
41515;BME280;27247;48.020;16.720;2022-12-18T16:05:24;101921.03;;;-1.65;97.43
41515;BME280;27247;48.020;16.720;2022-12-18T16:09:36;101926.16;;;-1.62;97.20
41515;BME280;27247;48.020;16.720;2022-12-18T16:13:47;101933.31;;;-1.67;97.38
41515;BME280;27247;48.020;16.720;2022-12-18T16:17:58;101928.88;;;-1.65;97.76
41515;BME280;27247;48.020;16.720;2022-12-18T16:22:18;101933.78;;;-1.54;97.78
41515;BME280;27247;48.020;16.720;2022-12-18T16:26:31;101935.56;;;-1.55;97.50
41515;BME280;27247;48.020;16.720;2022-12-18T16:30:42;101940.72;;;-1.52;97.31
41515;BME280;27247;48.020;16.720;2022-12-18T16:34:53;101945.81;;;-1.47;97.58
41515;BME280;27247;48.020;16.720;2022-12-18T16:39:04;101938.84;;;-1.48;97.73
41515;BME280;27247;48.020;16.720;2022-12-18T16:43:15;101940.66;;;-1.50;98.10
41515;BME280;27247;48.020;16.720;2022-12-18T16:47:26;101932.09;;;-1.55;97.80
41515;BME280;27247;48.020;16.720;2022-12-18T16:51:36;101933.03;;;-1.58;97.06
41515;BME280;27247;48.020;16.720;2022-12-18T16:55:54;101945.47;;;-1.65;96.94
41515;BME280;27247;48.020;16.720;2022-12-18T17:00:06;101934.59;;;-1.52;97.56
41515;BME280;27247;48.020;16.720;2022-12-18T17:04:18;101934.78;;;-1.58;96.64
41515;BME280;27247;48.020;16.720;2022-12-18T17:08:29;101934.75;;;-1.57;96.66
41515;BME280;27247;48.020;16.720;2022-12-18T17:12:40;101932.75;;;-1.49;96.63
41515;BME280;27247;48.020;16.720;2022-12-18T17:16:53;101925.78;;;-1.50;96.84
41515;BME280;27247;48.020;16.720;2022-12-18T17:21:05;101931.94;;;-1.51;96.50
41515;BME280;27247;48.020;16.720;2022-12-18T17:25:18;101938.75;;;-1.45;96.69
41515;BME280;27247;48.020;16.720;2022-12-18T17:29:31;101924.94;;;-1.50;96.53
41515;BME280;27247;48.020;16.720;2022-12-18T17:33:42;101915.13;;;-1.44;96.71
41515;BME280;27247;48.020;16.720;2022-12-18T17:37:53;101915.31;;;-1.50;97.14
41515;BME280;27247;48.020;16.720;2022-12-18T17:42:04;101923.03;;;-1.45;96.95
41515;BME280;27247;48.020;16.720;2022-12-18T17:46:16;101929.13;;;-1.45;96.90
41515;BME280;27247;48.020;16.720;2022-12-18T17:50:28;101922.06;;;-1.43;96.64
41515;BME280;27247;48.020;16.720;2022-12-18T17:54:39;101929.97;;;-1.44;96.49
41515;BME280;27247;48.020;16.720;2022-12-18T17:58:51;101919.41;;;-1.41;96.31
41515;BME280;27247;48.020;16.720;2022-12-18T18:03:02;101933.56;;;-1.47;96.43
41515;BME280;27247;48.020;16.720;2022-12-18T18:07:13;101937.09;;;-1.48;96.56
41515;BME280;27247;48.020;16.720;2022-12-18T18:11:25;101929.13;;;-1.45;96.10
41515;BME280;27247;48.020;16.720;2022-12-18T18:15:57;101943.34;;;-1.52;96.51
41515;BME280;27247;48.020;16.720;2022-12-18T18:20:09;101929.22;;;-1.48;96.19
41515;BME280;27247;48.020;16.720;2022-12-18T18:24:22;101933.59;;;-1.48;96.30
41515;BME280;27247;48.020;16.720;2022-12-18T18:28:35;101926.69;;;-1.51;96.71
41515;BME280;27247;48.020;16.720;2022-12-18T18:32:46;101930.13;;;-1.49;96.64
41515;BME280;27247;48.020;16.720;2022-12-18T18:36:57;101931.19;;;-1.54;96.55
41515;BME280;27247;48.020;16.720;2022-12-18T18:41:09;101948.53;;;-1.50;96.90
41515;BME280;27247;48.020;16.720;2022-12-18T18:45:21;101936.13;;;-1.45;96.83
41515;BME280;27247;48.020;16.720;2022-12-18T18:49:31;101937.03;;;-1.46;96.23
41515;BME280;27247;48.020;16.720;2022-12-18T18:53:43;101937.03;;;-1.46;96.60
41515;BME280;27247;48.020;16.720;2022-12-18T18:57:54;101934.41;;;-1.46;97.22
41515;BME280;27247;48.020;16.720;2022-12-18T19:02:09;101946.72;;;-1.48;97.41
41515;BME280;27247;48.020;16.720;2022-12-18T19:06:26;101945.03;;;-1.51;97.59
41515;BME280;27247;48.020;16.720;2022-12-18T19:10:39;101959.91;;;-1.51;97.67
41515;BME280;27247;48.020;16.720;2022-12-18T19:14:53;101949.56;;;-1.56;97.86
41515;BME280;27247;48.020;16.720;2022-12-18T19:19:03;101947.94;;;-1.60;99.03
41515;BME280;27247;48.020;16.720;2022-12-18T19:23:14;101940.81;;;-1.55;98.21
41515;BME280;27247;48.020;16.720;2022-12-18T19:27:25;101939.91;;;-1.54;98.28
41515;BME280;27247;48.020;16.720;2022-12-18T19:31:37;101941.72;;;-1.56;98.33
41515;BME280;27247;48.020;16.720;2022-12-18T19:35:48;101951.28;;;-1.55;98.46
41515;BME280;27247;48.020;16.720;2022-12-18T19:39:58;101942.66;;;-1.58;98.12
41515;BME280;27247;48.020;16.720;2022-12-18T19:44:11;101947.75;;;-1.54;97.80
41515;BME280;27247;48.020;16.720;2022-12-18T19:48:22;101937.50;;;-1.62;97.28
41515;BME280;27247;48.020;16.720;2022-12-18T19:52:32;101949.03;;;-1.67;97.94
41515;BME280;27247;48.020;16.720;2022-12-18T19:56:43;101957.72;;;-1.65;97.28
41515;BME280;27247;48.020;16.720;2022-12-18T20:00:54;101962.00;;;-1.63;97.70
41515;BME280;27247;48.020;16.720;2022-12-18T20:05:08;101956.81;;;-1.64;97.89
41515;BME280;27247;48.020;16.720;2022-12-18T20:09:20;101955.09;;;-1.65;98.28
41515;BME280;27247;48.020;16.720;2022-12-18T20:13:31;101950.72;;;-1.65;98.16
41515;BME280;27247;48.020;16.720;2022-12-18T20:17:42;101944.78;;;-1.71;98.19
41515;BME280;27247;48.020;16.720;2022-12-18T20:21:52;101945.78;;;-1.75;97.91
41515;BME280;27247;48.020;16.720;2022-12-18T20:26:03;101954.41;;;-1.72;98.31
41515;BME280;27247;48.020;16.720;2022-12-18T20:30:14;101944.16;;;-1.79;98.66
41515;BME280;27247;48.020;16.720;2022-12-18T20:34:24;101943.34;;;-1.81;98.23
41515;BME280;27247;48.020;16.720;2022-12-18T20:38:35;101947.81;;;-1.85;98.59
41515;BME280;27247;48.020;16.720;2022-12-18T20:42:48;101937.94;;;-1.75;97.95
41515;BME280;27247;48.020;16.720;2022-12-18T20:46:58;101934.34;;;-1.73;97.95
41515;BME280;27247;48.020;16.720;2022-12-18T20:51:17;101932.72;;;-1.77;98.22
41515;BME280;27247;48.020;16.720;2022-12-18T20:55:28;101923.09;;;-1.76;98.17
41515;BME280;27247;48.020;16.720;2022-12-18T20:59:39;101923.00;;;-1.73;97.93
41515;BME280;27247;48.020;16.720;2022-12-18T21:03:50;101913.72;;;-1.83;97.86
41515;BME280;27247;48.020;16.720;2022-12-18T21:08:01;101894.66;;;-1.88;97.35
41515;BME280;27247;48.020;16.720;2022-12-18T21:12:13;101907.78;;;-1.90;97.62
41515;BME280;27247;48.020;16.720;2022-12-18T21:16:43;101900.78;;;-1.89;97.24
41515;BME280;27247;48.020;16.720;2022-12-18T21:20:53;101903.59;;;-1.96;97.96
41515;BME280;27247;48.020;16.720;2022-12-18T21:25:04;101918.69;;;-2.04;98.50
41515;BME280;27247;48.020;16.720;2022-12-18T21:29:24;101917.06;;;-2.08;98.31
41515;BME280;27247;48.020;16.720;2022-12-18T21:33:35;101910.88;;;-2.05;98.12
41515;BME280;27247;48.020;16.720;2022-12-18T21:37:45;101916.00;;;-2.02;98.85
41515;BME280;27247;48.020;16.720;2022-12-18T21:41:56;101908.19;;;-2.04;98.74
41515;BME280;27247;48.020;16.720;2022-12-18T21:46:25;101919.41;;;-1.99;98.57
41515;BME280;27247;48.020;16.720;2022-12-18T21:50:36;101909.75;;;-1.97;98.35
41515;BME280;27247;48.020;16.720;2022-12-18T21:54:46;101900.97;;;-1.96;97.97
41515;BME280;27247;48.020;16.720;2022-12-18T21:58:57;101895.00;;;-2.01;97.99
41515;BME280;27247;48.020;16.720;2022-12-18T22:03:07;101911.50;;;-1.97;97.58
41515;BME280;27247;48.020;16.720;2022-12-18T22:07:17;101913.09;;;-1.91;97.38
41515;BME280;27247;48.020;16.720;2022-12-18T22:11:27;101908.03;;;-1.98;97.67
41515;BME280;27247;48.020;16.720;2022-12-18T22:15:38;101908.75;;;-1.92;97.06
41515;BME280;27247;48.020;16.720;2022-12-18T22:19:48;101912.44;;;-2.00;97.47
41515;BME280;27247;48.020;16.720;2022-12-18T22:24:15;101899.25;;;-1.97;97.34
41515;BME280;27247;48.020;16.720;2022-12-18T22:28:25;101917.63;;;-1.98;97.59
41515;BME280;27247;48.020;16.720;2022-12-18T22:32:54;101917.69;;;-2.00;97.92
41515;BME280;27247;48.020;16.720;2022-12-18T22:37:04;101909.88;;;-2.01;98.14
41515;BME280;27247;48.020;16.720;2022-12-18T22:41:15;101899.34;;;-2.00;97.52
41515;BME280;27247;48.020;16.720;2022-12-18T22:45:26;101894.97;;;-1.99;97.32
41515;BME280;27247;48.020;16.720;2022-12-18T22:49:37;101882.91;;;-2.05;97.01